This is the latest recevied weather packets stored in our database for station/object N7CW. If no packets are shown the sender has not sent any weather packets the latest 10 day(s).
| Time | Temp. | Humidity | Pressure | Rain* | Wind** | Luminosity | Snow |
|---|---|---|---|---|---|---|---|
| 1777542535 | 6.67° C | 28% | 1016.2 hPa | 0 mm | - | 0 W/m² | - |
| 1777542231 | 6.67° C | 27% | 1016.2 hPa | 0 mm | - | 0 W/m² | - |
| 1777541929 | 6.67° C | 30% | 1016.1 hPa | 0 mm | - | 0 W/m² | - |
| 1777541626 | 6.67° C | 29% | 1016.4 hPa | 0 mm | - | 0 W/m² | - |
| 1777541323 | 7.78° C | 26% | 1016.2 hPa | 0 mm | - | 0 W/m² | - |
| 1777541018 | 7.78° C | 26% | 1016.5 hPa | 0 mm | - | 0 W/m² | - |
| 1777540715 | 8.33° C | 26% | 1016.5 hPa | 0 mm | - | 0 W/m² | - |
| 1777540413 | 8.33° C | 25% | 1016.7 hPa | 0 mm | - | 0 W/m² | - |
| 1777540109 | 8.33° C | 25% | 1016.5 hPa | 0 mm | - | 0 W/m² | - |
| 1777539809 | 8.89° C | 25% | 1016.7 hPa | 0 mm | - | 0 W/m² | - |
| 1777539506 | 8.89° C | 24% | 1016.8 hPa | 0 mm | - | 0 W/m² | - |
| 1777539202 | 9.44° C | 24% | 1016.7 hPa | 0 mm | - | 0 W/m² | - |
| 1777538899 | 8.89° C | 24% | 1017 hPa | 0 mm | - | 0 W/m² | - |
| 1777538595 | 8.89° C | 25% | 1017.1 hPa | 0 mm | - | 0 W/m² | - |
| 1777538290 | 9.44° C | 25% | 1016.7 hPa | 0 mm | - | 0 W/m² | - |
| 1777537986 | 9.44° C | 24% | 1016.8 hPa | 0 mm | - | 0 W/m² | - |
| 1777537682 | 7.22° C | 27% | 1017 hPa | 0 mm | - | 0 W/m² | - |
| 1777537378 | 7.78° C | 29% | 1016.8 hPa | 0 mm | - | 0 W/m² | - |
| 1777537074 | 8.33° C | 26% | 1017.1 hPa | 0 mm | - | 0 W/m² | - |
| 1777536771 | 8.33° C | 26% | 1017.1 hPa | 0 mm | - | 0 W/m² | - |
| 1777536468 | 8.33° C | 26% | 1017.2 hPa | 0 mm | - | 0 W/m² | - |
| 1777536165 | 8.89° C | 25% | 1017.2 hPa | 0 mm | - | 0 W/m² | - |
| 1777535861 | 8.89° C | 25% | 1017.4 hPa | 0 mm | - | 0 W/m² | - |
| 1777535558 | 9.44° C | 24% | 1017.3 hPa | 0 mm | - | 0 W/m² | - |
| 1777535254 | 10° C | 24% | 1017.5 hPa | 0 mm | - | 0 W/m² | - |
* Rain latest hour (hover to see other rain measurements)
** Current wind speed in m/s (hover to see current wind gust speed)